sensor_id;sensor_type;location;lat;lon;timestamp;temperature;humidity
13052;DHT22;6592;47.484;9.726;2022-07-06T00:02:24;18.70;99.90
13052;DHT22;6592;47.484;9.726;2022-07-06T00:04:52;18.70;99.90
13052;DHT22;6592;47.484;9.726;2022-07-06T00:07:34;18.70;99.90
13052;DHT22;6592;47.484;9.726;2022-07-06T00:10:04;18.70;99.90
13052;DHT22;6592;47.484;9.726;2022-07-06T00:12:33;18.70;99.90
13052;DHT22;6592;47.484;9.726;2022-07-06T00:15:01;18.70;99.90
13052;DHT22;6592;47.484;9.726;2022-07-06T00:17:31;18.60;99.90
13052;DHT22;6592;47.484;9.726;2022-07-06T00:20:00;18.70;99.90
13052;DHT22;6592;47.484;9.726;2022-07-06T00:22:28;18.60;99.90
13052;DHT22;6592;47.484;9.726;2022-07-06T00:24:56;18.60;99.90
13052;DHT22;6592;47.484;9.726;2022-07-06T00:27:26;18.60;99.90
13052;DHT22;6592;47.484;9.726;2022-07-06T00:29:54;18.60;99.90
13052;DHT22;6592;47.484;9.726;2022-07-06T00:32:22;18.60;99.90
13052;DHT22;6592;47.484;9.726;2022-07-06T00:34:50;18.50;99.90
13052;DHT22;6592;47.484;9.726;2022-07-06T00:37:21;18.50;99.90
13052;DHT22;6592;47.484;9.726;2022-07-06T00:39:49;18.40;99.90
13052;DHT22;6592;47.484;9.726;2022-07-06T00:42:17;18.40;99.90
13052;DHT22;6592;47.484;9.726;2022-07-06T00:44:47;18.40;99.90
13052;DHT22;6592;47.484;9.726;2022-07-06T00:47:17;18.40;99.90
13052;DHT22;6592;47.484;9.726;2022-07-06T00:49:46;18.30;99.90
13052;DHT22;6592;47.484;9.726;2022-07-06T00:52:31;18.30;99.90
13052;DHT22;6592;47.484;9.726;2022-07-06T00:55:15;18.30;99.90
13052;DHT22;6592;47.484;9.726;2022-07-06T00:57:45;18.20;99.90
13052;DHT22;6592;47.484;9.726;2022-07-06T01:00:15;18.20;99.90
13052;DHT22;6592;47.484;9.726;2022-07-06T01:02:45;18.10;99.90
13052;DHT22;6592;47.484;9.726;2022-07-06T01:05:14;18.10;99.90
13052;DHT22;6592;47.484;9.726;2022-07-06T01:07:43;18.00;99.90
13052;DHT22;6592;47.484;9.726;2022-07-06T01:10:12;17.90;99.90
13052;DHT22;6592;47.484;9.726;2022-07-06T01:12:41;17.80;99.90
13052;DHT22;6592;47.484;9.726;2022-07-06T01:15:10;17.70;99.90
13052;DHT22;6592;47.484;9.726;2022-07-06T01:17:40;17.60;99.90
13052;DHT22;6592;47.484;9.726;2022-07-06T01:20:10;17.60;99.90
13052;DHT22;6592;47.484;9.726;2022-07-06T01:22:39;17.60;99.90
13052;DHT22;6592;47.484;9.726;2022-07-06T01:25:08;17.50;99.90
13052;DHT22;6592;47.484;9.726;2022-07-06T01:27:37;17.50;99.90
13052;DHT22;6592;47.484;9.726;2022-07-06T01:30:06;17.40;99.90
13052;DHT22;6592;47.484;9.726;2022-07-06T01:32:35;17.40;99.90
13052;DHT22;6592;47.484;9.726;2022-07-06T01:35:05;17.30;99.90
13052;DHT22;6592;47.484;9.726;2022-07-06T01:37:36;17.30;99.90
13052;DHT22;6592;47.484;9.726;2022-07-06T01:40:05;17.30;99.90
13052;DHT22;6592;47.484;9.726;2022-07-06T01:42:38;17.30;99.90
13052;DHT22;6592;47.484;9.726;2022-07-06T01:45:07;17.10;99.90
13052;DHT22;6592;47.484;9.726;2022-07-06T01:47:38;17.10;99.90
13052;DHT22;6592;47.484;9.726;2022-07-06T01:50:07;17.10;99.90
13052;DHT22;6592;47.484;9.726;2022-07-06T01:52:41;17.10;99.90
13052;DHT22;6592;47.484;9.726;2022-07-06T01:55:10;17.10;99.90
13052;DHT22;6592;47.484;9.726;2022-07-06T01:57:39;17.10;99.90
13052;DHT22;6592;47.484;9.726;2022-07-06T02:00:07;17.10;99.90
13052;DHT22;6592;47.484;9.726;2022-07-06T02:02:35;17.10;99.90
13052;DHT22;6592;47.484;9.726;2022-07-06T02:05:05;17.00;99.90
13052;DHT22;6592;47.484;9.726;2022-07-06T02:07:33;17.00;99.90
13052;DHT22;6592;47.484;9.726;2022-07-06T02:10:03;16.90;99.90
13052;DHT22;6592;47.484;9.726;2022-07-06T02:12:32;16.90;99.90
13052;DHT22;6592;47.484;9.726;2022-07-06T02:15:00;16.90;99.90
13052;DHT22;6592;47.484;9.726;2022-07-06T02:17:28;16.80;99.90
13052;DHT22;6592;47.484;9.726;2022-07-06T02:19:57;16.80;99.90
13052;DHT22;6592;47.484;9.726;2022-07-06T02:22:28;16.70;99.90
13052;DHT22;6592;47.484;9.726;2022-07-06T02:25:04;16.70;99.90
13052;DHT22;6592;47.484;9.726;2022-07-06T02:27:33;16.60;99.90
13052;DHT22;6592;47.484;9.726;2022-07-06T02:30:01;16.60;99.90
13052;DHT22;6592;47.484;9.726;2022-07-06T02:32:34;16.60;99.90
13052;DHT22;6592;47.484;9.726;2022-07-06T02:35:04;16.60;99.90
13052;DHT22;6592;47.484;9.726;2022-07-06T02:37:35;16.60;99.90
13052;DHT22;6592;47.484;9.726;2022-07-06T02:40:05;16.60;99.90
13052;DHT22;6592;47.484;9.726;2022-07-06T02:42:33;16.60;99.90
13052;DHT22;6592;47.484;9.726;2022-07-06T02:45:03;16.50;99.90
13052;DHT22;6592;47.484;9.726;2022-07-06T02:47:34;16.50;99.90
13052;DHT22;6592;47.484;9.726;2022-07-06T02:50:04;16.50;99.90
13052;DHT22;6592;47.484;9.726;2022-07-06T02:52:32;16.50;99.90
13052;DHT22;6592;47.484;9.726;2022-07-06T02:55:08;16.50;99.90
13052;DHT22;6592;47.484;9.726;2022-07-06T02:57:38;16.40;99.90
13052;DHT22;6592;47.484;9.726;2022-07-06T03:00:15;16.50;99.90
13052;DHT22;6592;47.484;9.726;2022-07-06T03:02:43;16.60;99.90
13052;DHT22;6592;47.484;9.726;2022-07-06T03:05:12;16.60;99.90
13052;DHT22;6592;47.484;9.726;2022-07-06T03:07:40;16.50;99.90
13052;DHT22;6592;47.484;9.726;2022-07-06T03:10:09;16.50;99.90
13052;DHT22;6592;47.484;9.726;2022-07-06T03:12:37;16.50;99.90
13052;DHT22;6592;47.484;9.726;2022-07-06T03:15:06;16.50;99.90
13052;DHT22;6592;47.484;9.726;2022-07-06T03:17:36;16.50;99.90
13052;DHT22;6592;47.484;9.726;2022-07-06T03:20:05;16.50;99.90
13052;DHT22;6592;47.484;9.726;2022-07-06T03:22:37;16.50;99.90
13052;DHT22;6592;47.484;9.726;2022-07-06T03:25:07;16.40;99.90
13052;DHT22;6592;47.484;9.726;2022-07-06T03:27:36;16.40;99.90
13052;DHT22;6592;47.484;9.726;2022-07-06T03:30:05;16.40;99.90
13052;DHT22;6592;47.484;9.726;2022-07-06T03:32:40;16.40;99.90
13052;DHT22;6592;47.484;9.726;2022-07-06T03:35:08;16.40;99.90
13052;DHT22;6592;47.484;9.726;2022-07-06T03:37:37;16.40;99.90
13052;DHT22;6592;47.484;9.726;2022-07-06T03:40:06;16.30;99.90
13052;DHT22;6592;47.484;9.726;2022-07-06T03:42:35;16.30;99.90
13052;DHT22;6592;47.484;9.726;2022-07-06T03:45:05;16.30;99.90
13052;DHT22;6592;47.484;9.726;2022-07-06T03:47:34;16.30;99.90
13052;DHT22;6592;47.484;9.726;2022-07-06T03:50:06;16.30;99.90
13052;DHT22;6592;47.484;9.726;2022-07-06T03:52:34;16.20;99.90
13052;DHT22;6592;47.484;9.726;2022-07-06T03:55:07;16.20;99.90
13052;DHT22;6592;47.484;9.726;2022-07-06T03:57:35;16.20;99.90
13052;DHT22;6592;47.484;9.726;2022-07-06T04:00:08;16.20;99.90
13052;DHT22;6592;47.484;9.726;2022-07-06T04:02:36;16.20;99.90
13052;DHT22;6592;47.484;9.726;2022-07-06T04:05:07;16.20;99.90
13052;DHT22;6592;47.484;9.726;2022-07-06T04:07:36;16.20;99.90
13052;DHT22;6592;47.484;9.726;2022-07-06T04:10:04;16.20;99.90
13052;DHT22;6592;47.484;9.726;2022-07-06T04:12:39;16.20;99.90
13052;DHT22;6592;47.484;9.726;2022-07-06T04:15:09;16.30;99.90
13052;DHT22;6592;47.484;9.726;2022-07-06T04:17:38;16.30;99.90
13052;DHT22;6592;47.484;9.726;2022-07-06T04:20:21;16.30;99.90
13052;DHT22;6592;47.484;9.726;2022-07-06T04:22:50;16.30;99.90
13052;DHT22;6592;47.484;9.726;2022-07-06T04:25:32;16.30;99.90
13052;DHT22;6592;47.484;9.726;2022-07-06T04:28:00;16.30;99.90
13052;DHT22;6592;47.484;9.726;2022-07-06T04:30:30;16.30;99.90
13052;DHT22;6592;47.484;9.726;2022-07-06T04:32:58;16.40;99.90
13052;DHT22;6592;47.484;9.726;2022-07-06T04:35:29;16.40;99.90
13052;DHT22;6592;47.484;9.726;2022-07-06T04:38:04;16.40;99.90
13052;DHT22;6592;47.484;9.726;2022-07-06T04:40:33;16.40;99.90
13052;DHT22;6592;47.484;9.726;2022-07-06T04:43:04;16.50;99.90
13052;DHT22;6592;47.484;9.726;2022-07-06T04:45:35;16.50;99.90
13052;DHT22;6592;47.484;9.726;2022-07-06T04:48:04;16.60;99.90
13052;DHT22;6592;47.484;9.726;2022-07-06T04:50:32;16.60;99.90
13052;DHT22;6592;47.484;9.726;2022-07-06T04:53:06;16.70;99.90
13052;DHT22;6592;47.484;9.726;2022-07-06T04:55:35;16.80;99.90
13052;DHT22;6592;47.484;9.726;2022-07-06T04:58:10;16.90;99.90
13052;DHT22;6592;47.484;9.726;2022-07-06T05:00:44;17.00;99.90
13052;DHT22;6592;47.484;9.726;2022-07-06T05:03:13;17.00;99.90
13052;DHT22;6592;47.484;9.726;2022-07-06T05:05:41;17.10;99.90
13052;DHT22;6592;47.484;9.726;2022-07-06T05:08:10;17.20;99.90
13052;DHT22;6592;47.484;9.726;2022-07-06T05:10:40;17.30;99.90
13052;DHT22;6592;47.484;9.726;2022-07-06T05:13:23;17.30;99.90
13052;DHT22;6592;47.484;9.726;2022-07-06T05:15:59;17.40;99.90
13052;DHT22;6592;47.484;9.726;2022-07-06T05:18:28;17.50;99.90
13052;DHT22;6592;47.484;9.726;2022-07-06T05:21:01;17.50;99.90
13052;DHT22;6592;47.484;9.726;2022-07-06T05:23:30;17.60;99.90
13052;DHT22;6592;47.484;9.726;2022-07-06T05:25:58;17.70;99.90
13052;DHT22;6592;47.484;9.726;2022-07-06T05:28:26;17.80;99.90
13052;DHT22;6592;47.484;9.726;2022-07-06T05:31:03;17.90;99.90
13052;DHT22;6592;47.484;9.726;2022-07-06T05:33:31;18.00;99.90
13052;DHT22;6592;47.484;9.726;2022-07-06T05:35:59;18.10;99.90
13052;DHT22;6592;47.484;9.726;2022-07-06T05:38:27;18.20;99.90
13052;DHT22;6592;47.484;9.726;2022-07-06T05:40:55;18.20;99.90
13052;DHT22;6592;47.484;9.726;2022-07-06T05:43:23;18.30;99.90
13052;DHT22;6592;47.484;9.726;2022-07-06T05:45:51;18.50;99.90
13052;DHT22;6592;47.484;9.726;2022-07-06T05:48:21;18.70;99.90
13052;DHT22;6592;47.484;9.726;2022-07-06T05:51:06;18.80;99.90
13052;DHT22;6592;47.484;9.726;2022-07-06T05:53:34;19.10;99.90
13052;DHT22;6592;47.484;9.726;2022-07-06T05:56:02;19.60;99.90
13052;DHT22;6592;47.484;9.726;2022-07-06T05:58:30;20.20;99.90
13052;DHT22;6592;47.484;9.726;2022-07-06T06:00:58;20.70;99.90
13052;DHT22;6592;47.484;9.726;2022-07-06T06:03:28;21.10;99.90
13052;DHT22;6592;47.484;9.726;2022-07-06T06:05:56;21.60;99.90
13052;DHT22;6592;47.484;9.726;2022-07-06T06:08:24;21.80;99.90
13052;DHT22;6592;47.484;9.726;2022-07-06T06:10:54;22.10;99.90
13052;DHT22;6592;47.484;9.726;2022-07-06T06:13:22;22.40;99.90
13052;DHT22;6592;47.484;9.726;2022-07-06T06:15:50;22.40;99.90
13052;DHT22;6592;47.484;9.726;2022-07-06T06:18:18;22.20;99.90
13052;DHT22;6592;47.484;9.726;2022-07-06T06:20:48;22.00;99.90
13052;DHT22;6592;47.484;9.726;2022-07-06T06:23:16;21.60;99.90
13052;DHT22;6592;47.484;9.726;2022-07-06T06:25:44;21.50;99.90
13052;DHT22;6592;47.484;9.726;2022-07-06T06:28:12;21.50;99.90
13052;DHT22;6592;47.484;9.726;2022-07-06T06:30:40;21.80;99.90
13052;DHT22;6592;47.484;9.726;2022-07-06T06:33:09;21.70;99.90
13052;DHT22;6592;47.484;9.726;2022-07-06T06:35:37;21.80;99.90
13052;DHT22;6592;47.484;9.726;2022-07-06T06:38:06;21.50;99.90
13052;DHT22;6592;47.484;9.726;2022-07-06T06:40:34;21.30;99.90
13052;DHT22;6592;47.484;9.726;2022-07-06T06:43:02;21.40;99.90
13052;DHT22;6592;47.484;9.726;2022-07-06T06:45:31;21.60;99.90
13052;DHT22;6592;47.484;9.726;2022-07-06T06:47:59;21.90;99.90
13052;DHT22;6592;47.484;9.726;2022-07-06T06:50:27;22.30;99.90
13052;DHT22;6592;47.484;9.726;2022-07-06T06:52:55;22.40;99.90
13052;DHT22;6592;47.484;9.726;2022-07-06T06:55:24;22.40;99.90
13052;DHT22;6592;47.484;9.726;2022-07-06T06:57:52;22.80;99.90
13052;DHT22;6592;47.484;9.726;2022-07-06T07:00:20;23.30;99.90
13052;DHT22;6592;47.484;9.726;2022-07-06T07:02:48;23.80;99.90
13052;DHT22;6592;47.484;9.726;2022-07-06T07:05:16;24.00;99.90
13052;DHT22;6592;47.484;9.726;2022-07-06T07:07:44;24.30;99.90
13052;DHT22;6592;47.484;9.726;2022-07-06T07:10:12;24.50;99.90
13052;DHT22;6592;47.484;9.726;2022-07-06T07:12:45;25.10;99.90
13052;DHT22;6592;47.484;9.726;2022-07-06T07:15:14;25.40;99.90
13052;DHT22;6592;47.484;9.726;2022-07-06T07:17:42;25.90;99.90
13052;DHT22;6592;47.484;9.726;2022-07-06T07:20:10;26.60;99.90
13052;DHT22;6592;47.484;9.726;2022-07-06T07:22:38;27.30;99.90
13052;DHT22;6592;47.484;9.726;2022-07-06T07:25:06;28.10;99.90
13052;DHT22;6592;47.484;9.726;2022-07-06T07:27:35;28.80;99.90
13052;DHT22;6592;47.484;9.726;2022-07-06T07:30:05;29.20;99.90
13052;DHT22;6592;47.484;9.726;2022-07-06T07:32:33;29.60;99.90
13052;DHT22;6592;47.484;9.726;2022-07-06T07:35:01;29.80;99.90
13052;DHT22;6592;47.484;9.726;2022-07-06T07:37:30;30.40;99.90
13052;DHT22;6592;47.484;9.726;2022-07-06T07:39:58;31.00;99.90
13052;DHT22;6592;47.484;9.726;2022-07-06T07:42:26;31.10;99.90
13052;DHT22;6592;47.484;9.726;2022-07-06T07:44:54;31.60;99.90
13052;DHT22;6592;47.484;9.726;2022-07-06T07:47:23;32.20;99.90
13052;DHT22;6592;47.484;9.726;2022-07-06T07:49:51;32.00;98.90
13052;DHT22;6592;47.484;9.726;2022-07-06T07:52:20;32.50;98.30
13052;DHT22;6592;47.484;9.726;2022-07-06T07:54:48;32.70;97.40
13052;DHT22;6592;47.484;9.726;2022-07-06T07:57:36;32.90;95.70
13052;DHT22;6592;47.484;9.726;2022-07-06T08:00:05;33.00;94.00
13052;DHT22;6592;47.484;9.726;2022-07-06T08:02:35;33.10;92.80
13052;DHT22;6592;47.484;9.726;2022-07-06T08:05:04;32.80;93.80
13052;DHT22;6592;47.484;9.726;2022-07-06T08:07:33;32.90;94.20
13052;DHT22;6592;47.484;9.726;2022-07-06T08:10:02;33.10;94.20
13052;DHT22;6592;47.484;9.726;2022-07-06T08:12:31;33.40;93.70
13052;DHT22;6592;47.484;9.726;2022-07-06T08:14:59;33.70;93.10
13052;DHT22;6592;47.484;9.726;2022-07-06T08:17:28;33.70;92.50
13052;DHT22;6592;47.484;9.726;2022-07-06T08:19:58;34.20;92.60
13052;DHT22;6592;47.484;9.726;2022-07-06T08:22:27;34.60;91.80
13052;DHT22;6592;47.484;9.726;2022-07-06T08:24:57;34.50;84.70
13052;DHT22;6592;47.484;9.726;2022-07-06T08:27:25;34.90;89.30
13052;DHT22;6592;47.484;9.726;2022-07-06T08:29:54;34.90;87.70
13052;DHT22;6592;47.484;9.726;2022-07-06T08:32:22;34.50;81.80
13052;DHT22;6592;47.484;9.726;2022-07-06T08:35:12;34.30;85.50
13052;DHT22;6592;47.484;9.726;2022-07-06T08:37:41;34.10;83.10
13052;DHT22;6592;47.484;9.726;2022-07-06T08:40:10;34.10;82.90
13052;DHT22;6592;47.484;9.726;2022-07-06T08:42:39;34.50;82.60
13052;DHT22;6592;47.484;9.726;2022-07-06T08:45:07;35.20;82.10
13052;DHT22;6592;47.484;9.726;2022-07-06T08:47:36;35.00;79.90
13052;DHT22;6592;47.484;9.726;2022-07-06T08:50:05;35.10;77.90
13052;DHT22;6592;47.484;9.726;2022-07-06T08:52:36;35.30;74.10
13052;DHT22;6592;47.484;9.726;2022-07-06T08:55:05;35.60;76.40
13052;DHT22;6592;47.484;9.726;2022-07-06T08:57:34;35.70;74.50
13052;DHT22;6592;47.484;9.726;2022-07-06T09:00:02;35.90;72.00
13052;DHT22;6592;47.484;9.726;2022-07-06T09:02:30;35.90;73.80
13052;DHT22;6592;47.484;9.726;2022-07-06T09:04:59;36.10;70.70
13052;DHT22;6592;47.484;9.726;2022-07-06T09:07:28;36.30;70.10
13052;DHT22;6592;47.484;9.726;2022-07-06T09:10:19;36.70;67.30
13052;DHT22;6592;47.484;9.726;2022-07-06T09:12:48;35.80;66.70
13052;DHT22;6592;47.484;9.726;2022-07-06T09:15:16;35.90;67.90
13052;DHT22;6592;47.484;9.726;2022-07-06T09:17:45;36.20;65.60
13052;DHT22;6592;47.484;9.726;2022-07-06T09:20:13;35.50;63.90
13052;DHT22;6592;47.484;9.726;2022-07-06T09:22:42;35.40;64.80
13052;DHT22;6592;47.484;9.726;2022-07-06T09:25:11;35.30;65.80
13052;DHT22;6592;47.484;9.726;2022-07-06T09:27:42;35.40;67.60
13052;DHT22;6592;47.484;9.726;2022-07-06T09:30:10;35.20;64.00
13052;DHT22;6592;47.484;9.726;2022-07-06T09:32:39;34.90;67.00
13052;DHT22;6592;47.484;9.726;2022-07-06T09:35:08;34.90;65.00
13052;DHT22;6592;47.484;9.726;2022-07-06T09:37:36;34.90;64.80
13052;DHT22;6592;47.484;9.726;2022-07-06T09:40:15;35.20;67.00
13052;DHT22;6592;47.484;9.726;2022-07-06T09:42:46;35.40;65.80
13052;DHT22;6592;47.484;9.726;2022-07-06T09:45:19;35.50;62.00
13052;DHT22;6592;47.484;9.726;2022-07-06T09:47:52;36.10;62.60
13052;DHT22;6592;47.484;9.726;2022-07-06T09:50:21;36.20;60.00
13052;DHT22;6592;47.484;9.726;2022-07-06T09:52:53;36.40;60.30
13052;DHT22;6592;47.484;9.726;2022-07-06T09:55:21;36.50;60.50
13052;DHT22;6592;47.484;9.726;2022-07-06T09:57:54;36.80;61.90
13052;DHT22;6592;47.484;9.726;2022-07-06T10:00:23;37.00;62.40
13052;DHT22;6592;47.484;9.726;2022-07-06T10:02:51;36.80;61.40
13052;DHT22;6592;47.484;9.726;2022-07-06T10:05:22;36.90;60.80
13052;DHT22;6592;47.484;9.726;2022-07-06T10:07:56;36.90;59.10
13052;DHT22;6592;47.484;9.726;2022-07-06T10:10:26;37.00;60.10
13052;DHT22;6592;47.484;9.726;2022-07-06T10:12:56;36.80;61.30
13052;DHT22;6592;47.484;9.726;2022-07-06T10:15:26;36.40;59.10
13052;DHT22;6592;47.484;9.726;2022-07-06T10:17:55;36.40;59.60
13052;DHT22;6592;47.484;9.726;2022-07-06T10:20:27;36.70;60.10
13052;DHT22;6592;47.484;9.726;2022-07-06T10:22:58;36.80;59.10
13052;DHT22;6592;47.484;9.726;2022-07-06T10:25:37;36.70;59.40
13052;DHT22;6592;47.484;9.726;2022-07-06T10:28:07;36.80;57.70
13052;DHT22;6592;47.484;9.726;2022-07-06T10:30:42;36.50;56.30
13052;DHT22;6592;47.484;9.726;2022-07-06T10:33:15;36.50;58.00
13052;DHT22;6592;47.484;9.726;2022-07-06T10:35:50;36.90;61.00
13052;DHT22;6592;47.484;9.726;2022-07-06T10:38:18;37.10;59.80
13052;DHT22;6592;47.484;9.726;2022-07-06T10:41:04;36.80;58.70
13052;DHT22;6592;47.484;9.726;2022-07-06T10:43:36;36.80;59.40
13052;DHT22;6592;47.484;9.726;2022-07-06T10:46:16;36.40;59.10
13052;DHT22;6592;47.484;9.726;2022-07-06T10:48:47;36.60;62.40
13052;DHT22;6592;47.484;9.726;2022-07-06T10:51:22;37.00;60.80
13052;DHT22;6592;47.484;9.726;2022-07-06T10:53:55;37.10;61.20
13052;DHT22;6592;47.484;9.726;2022-07-06T10:56:31;37.10;62.20
13052;DHT22;6592;47.484;9.726;2022-07-06T10:59:09;37.20;57.20
13052;DHT22;6592;47.484;9.726;2022-07-06T11:01:39;36.80;59.60
13052;DHT22;6592;47.484;9.726;2022-07-06T11:04:13;36.40;58.60
13052;DHT22;6592;47.484;9.726;2022-07-06T11:06:43;36.40;59.90
13052;DHT22;6592;47.484;9.726;2022-07-06T11:09:13;36.60;60.10
13052;DHT22;6592;47.484;9.726;2022-07-06T11:11:42;36.40;60.00
13052;DHT22;6592;47.484;9.726;2022-07-06T11:14:17;36.50;59.30
13052;DHT22;6592;47.484;9.726;2022-07-06T11:17:02;36.40;62.20
13052;DHT22;6592;47.484;9.726;2022-07-06T11:19:32;36.30;60.50
13052;DHT22;6592;47.484;9.726;2022-07-06T11:22:04;36.30;62.20
13052;DHT22;6592;47.484;9.726;2022-07-06T11:24:35;36.00;61.10
13052;DHT22;6592;47.484;9.726;2022-07-06T11:27:05;35.90;59.40
13052;DHT22;6592;47.484;9.726;2022-07-06T11:29:40;36.00;60.10
13052;DHT22;6592;47.484;9.726;2022-07-06T11:32:12;35.70;61.50
13052;DHT22;6592;47.484;9.726;2022-07-06T11:34:41;35.80;66.50
13052;DHT22;6592;47.484;9.726;2022-07-06T11:37:11;36.00;62.80
13052;DHT22;6592;47.484;9.726;2022-07-06T11:39:40;36.40;61.20
13052;DHT22;6592;47.484;9.726;2022-07-06T11:42:11;36.50;60.50
13052;DHT22;6592;47.484;9.726;2022-07-06T11:44:43;36.40;59.80
13052;DHT22;6592;47.484;9.726;2022-07-06T11:47:12;36.10;58.00
13052;DHT22;6592;47.484;9.726;2022-07-06T11:49:49;36.00;59.10
13052;DHT22;6592;47.484;9.726;2022-07-06T11:52:17;35.70;58.50
13052;DHT22;6592;47.484;9.726;2022-07-06T11:54:47;35.70;58.90
13052;DHT22;6592;47.484;9.726;2022-07-06T11:57:17;35.90;59.20
13052;DHT22;6592;47.484;9.726;2022-07-06T11:59:50;35.90;58.80
13052;DHT22;6592;47.484;9.726;2022-07-06T12:02:19;35.80;61.10
13052;DHT22;6592;47.484;9.726;2022-07-06T12:04:48;35.90;61.80
13052;DHT22;6592;47.484;9.726;2022-07-06T12:07:17;35.80;60.00
13052;DHT22;6592;47.484;9.726;2022-07-06T12:09:47;35.70;59.40
13052;DHT22;6592;47.484;9.726;2022-07-06T12:12:16;35.80;59.50
13052;DHT22;6592;47.484;9.726;2022-07-06T12:14:47;35.10;59.60
13052;DHT22;6592;47.484;9.726;2022-07-06T12:17:21;34.90;58.90
13052;DHT22;6592;47.484;9.726;2022-07-06T12:19:52;34.70;59.50
13052;DHT22;6592;47.484;9.726;2022-07-06T12:22:24;34.30;59.20
13052;DHT22;6592;47.484;9.726;2022-07-06T12:24:53;34.10;62.80
13052;DHT22;6592;47.484;9.726;2022-07-06T12:27:22;33.90;62.70
13052;DHT22;6592;47.484;9.726;2022-07-06T12:29:50;33.70;68.00
13052;DHT22;6592;47.484;9.726;2022-07-06T12:32:19;33.60;61.00
13052;DHT22;6592;47.484;9.726;2022-07-06T12:35:03;33.40;59.80
13052;DHT22;6592;47.484;9.726;2022-07-06T12:37:32;32.90;58.00
13052;DHT22;6592;47.484;9.726;2022-07-06T12:40:02;32.40;58.90
13052;DHT22;6592;47.484;9.726;2022-07-06T12:42:33;32.10;59.60
13052;DHT22;6592;47.484;9.726;2022-07-06T12:45:02;31.90;58.70
13052;DHT22;6592;47.484;9.726;2022-07-06T12:47:38;31.70;57.90
13052;DHT22;6592;47.484;9.726;2022-07-06T12:50:11;31.40;55.90
13052;DHT22;6592;47.484;9.726;2022-07-06T12:52:39;31.10;57.30
13052;DHT22;6592;47.484;9.726;2022-07-06T12:55:08;31.00;58.00
13052;DHT22;6592;47.484;9.726;2022-07-06T12:57:42;31.00;57.60
13052;DHT22;6592;47.484;9.726;2022-07-06T13:00:11;30.80;58.90
13052;DHT22;6592;47.484;9.726;2022-07-06T13:02:40;30.70;63.20
13052;DHT22;6592;47.484;9.726;2022-07-06T13:05:29;30.60;65.00
13052;DHT22;6592;47.484;9.726;2022-07-06T13:07:57;30.50;64.30
13052;DHT22;6592;47.484;9.726;2022-07-06T13:10:27;30.40;66.60
13052;DHT22;6592;47.484;9.726;2022-07-06T13:12:57;30.40;64.20
13052;DHT22;6592;47.484;9.726;2022-07-06T13:15:26;30.30;61.40
13052;DHT22;6592;47.484;9.726;2022-07-06T13:17:55;30.30;65.20
13052;DHT22;6592;47.484;9.726;2022-07-06T13:20:24;30.00;60.70
13052;DHT22;6592;47.484;9.726;2022-07-06T13:22:54;29.90;67.10
13052;DHT22;6592;47.484;9.726;2022-07-06T13:25:22;29.70;64.00
13052;DHT22;6592;47.484;9.726;2022-07-06T13:27:50;29.50;64.90
13052;DHT22;6592;47.484;9.726;2022-07-06T13:30:20;29.30;66.10
13052;DHT22;6592;47.484;9.726;2022-07-06T13:32:49;29.40;70.50
13052;DHT22;6592;47.484;9.726;2022-07-06T13:35:18;29.40;68.30
13052;DHT22;6592;47.484;9.726;2022-07-06T13:37:46;29.40;68.10
13052;DHT22;6592;47.484;9.726;2022-07-06T13:40:19;29.40;68.10
13052;DHT22;6592;47.484;9.726;2022-07-06T13:42:49;29.50;69.00
13052;DHT22;6592;47.484;9.726;2022-07-06T13:45:17;29.50;64.10
13052;DHT22;6592;47.484;9.726;2022-07-06T13:48:00;29.50;65.90
13052;DHT22;6592;47.484;9.726;2022-07-06T13:50:29;29.40;65.30
13052;DHT22;6592;47.484;9.726;2022-07-06T13:52:59;29.30;64.90
13052;DHT22;6592;47.484;9.726;2022-07-06T13:55:28;29.30;62.80
13052;DHT22;6592;47.484;9.726;2022-07-06T13:57:57;29.40;67.20
13052;DHT22;6592;47.484;9.726;2022-07-06T14:00:25;29.40;64.30
13052;DHT22;6592;47.484;9.726;2022-07-06T14:02:54;29.40;63.10
13052;DHT22;6592;47.484;9.726;2022-07-06T14:05:23;29.50;64.00
13052;DHT22;6592;47.484;9.726;2022-07-06T14:07:52;29.40;59.40
13052;DHT22;6592;47.484;9.726;2022-07-06T14:10:21;29.30;58.60
13052;DHT22;6592;47.484;9.726;2022-07-06T14:12:50;29.20;59.60
13052;DHT22;6592;47.484;9.726;2022-07-06T14:15:19;29.20;59.20
13052;DHT22;6592;47.484;9.726;2022-07-06T14:17:47;29.00;58.60
13052;DHT22;6592;47.484;9.726;2022-07-06T14:20:15;28.90;58.70
13052;DHT22;6592;47.484;9.726;2022-07-06T14:22:45;29.00;63.00
13052;DHT22;6592;47.484;9.726;2022-07-06T14:25:13;29.10;63.50
13052;DHT22;6592;47.484;9.726;2022-07-06T14:27:41;29.10;61.60
13052;DHT22;6592;47.484;9.726;2022-07-06T14:30:12;29.20;63.70
13052;DHT22;6592;47.484;9.726;2022-07-06T14:32:40;29.30;61.80
13052;DHT22;6592;47.484;9.726;2022-07-06T14:35:10;29.30;61.20
13052;DHT22;6592;47.484;9.726;2022-07-06T14:37:38;29.20;58.90
13052;DHT22;6592;47.484;9.726;2022-07-06T14:40:07;29.30;59.60
13052;DHT22;6592;47.484;9.726;2022-07-06T14:42:35;29.30;59.90
13052;DHT22;6592;47.484;9.726;2022-07-06T14:45:04;29.40;61.60
13052;DHT22;6592;47.484;9.726;2022-07-06T14:47:33;29.40;63.40
13052;DHT22;6592;47.484;9.726;2022-07-06T14:50:03;29.40;60.70
13052;DHT22;6592;47.484;9.726;2022-07-06T14:52:31;29.50;60.00
13052;DHT22;6592;47.484;9.726;2022-07-06T14:55:01;29.60;60.80
13052;DHT22;6592;47.484;9.726;2022-07-06T14:57:29;29.50;59.80
13052;DHT22;6592;47.484;9.726;2022-07-06T14:59:57;29.50;61.80
13052;DHT22;6592;47.484;9.726;2022-07-06T15:02:25;29.40;61.00
13052;DHT22;6592;47.484;9.726;2022-07-06T15:04:55;29.40;61.70
13052;DHT22;6592;47.484;9.726;2022-07-06T15:07:23;29.40;61.50
13052;DHT22;6592;47.484;9.726;2022-07-06T15:09:51;29.30;60.70
13052;DHT22;6592;47.484;9.726;2022-07-06T15:12:19;29.20;60.00
13052;DHT22;6592;47.484;9.726;2022-07-06T15:14:48;29.10;60.70
13052;DHT22;6592;47.484;9.726;2022-07-06T15:17:16;29.00;60.80
13052;DHT22;6592;47.484;9.726;2022-07-06T15:19:44;29.00;60.70
13052;DHT22;6592;47.484;9.726;2022-07-06T15:22:20;29.00;61.30
13052;DHT22;6592;47.484;9.726;2022-07-06T15:24:49;29.00;62.50
13052;DHT22;6592;47.484;9.726;2022-07-06T15:27:18;28.90;61.30
13052;DHT22;6592;47.484;9.726;2022-07-06T15:29:46;28.90;63.10
13052;DHT22;6592;47.484;9.726;2022-07-06T15:32:14;28.90;64.90
13052;DHT22;6592;47.484;9.726;2022-07-06T15:34:42;28.90;66.30
13052;DHT22;6592;47.484;9.726;2022-07-06T15:37:11;28.80;64.80
13052;DHT22;6592;47.484;9.726;2022-07-06T15:39:40;28.80;63.70
13052;DHT22;6592;47.484;9.726;2022-07-06T15:42:08;28.80;63.10
13052;DHT22;6592;47.484;9.726;2022-07-06T15:44:36;28.80;63.80
13052;DHT22;6592;47.484;9.726;2022-07-06T15:47:05;28.70;59.50
13052;DHT22;6592;47.484;9.726;2022-07-06T15:49:34;28.70;60.40
13052;DHT22;6592;47.484;9.726;2022-07-06T15:52:02;28.60;61.00
13052;DHT22;6592;47.484;9.726;2022-07-06T15:54:30;28.60;62.50
13052;DHT22;6592;47.484;9.726;2022-07-06T15:57:00;28.60;60.30
13052;DHT22;6592;47.484;9.726;2022-07-06T15:59:30;28.50;61.30
13052;DHT22;6592;47.484;9.726;2022-07-06T16:01:58;28.50;61.00
13052;DHT22;6592;47.484;9.726;2022-07-06T16:04:26;28.40;61.10